createdAt,value
2022-09-07T00:00:30.772Z,953.47
2022-09-07T00:01:30.765Z,953.47
2022-09-07T00:02:30.795Z,953.45
2022-09-07T00:03:30.785Z,953.44
2022-09-07T00:04:30.784Z,953.43
2022-09-07T00:05:30.735Z,953.4
2022-09-07T00:06:30.728Z,953.4
2022-09-07T00:07:30.723Z,953.4
2022-09-07T00:08:30.779Z,953.43
2022-09-07T00:09:30.706Z,953.39
2022-09-07T00:10:30.697Z,953.4
2022-09-07T00:11:30.692Z,953.32
2022-09-07T00:12:30.685Z,953.36
2022-09-07T00:13:30.687Z,953.33
2022-09-07T00:14:30.671Z,953.37
2022-09-07T00:15:30.665Z,953.32
2022-09-07T00:16:30.727Z,953.33
2022-09-07T00:17:30.651Z,953.31
2022-09-07T00:18:30.776Z,953.29
2022-09-07T00:19:30.635Z,953.29
2022-09-07T00:20:30.629Z,953.25
2022-09-07T00:21:30.623Z,953.26
2022-09-07T00:22:30.614Z,953.3
2022-09-07T00:23:30.610Z,953.26
2022-09-07T00:24:30.601Z,953.26
2022-09-07T00:25:32.000Z,953.23
2022-09-07T00:26:30.587Z,953.23
2022-09-07T00:27:30.576Z,953.27
2022-09-07T00:28:30.645Z,953.23
2022-09-07T00:29:30.562Z,953.27
2022-09-07T00:30:30.559Z,953.23
2022-09-07T00:31:30.629Z,953.26
2022-09-07T00:32:30.544Z,953.22
2022-09-07T00:33:30.535Z,953.25
2022-09-07T00:34:30.529Z,953.21
2022-09-07T00:35:30.521Z,953.23
2022-09-07T00:36:30.528Z,953.18
2022-09-07T00:37:30.505Z,953.18
2022-09-07T00:38:30.572Z,953.13
2022-09-07T00:39:30.559Z,953.13
2022-09-07T00:40:30.486Z,953.08
2022-09-07T00:41:30.479Z,953.08
2022-09-07T00:42:30.481Z,953.11
2022-09-07T00:43:30.467Z,953.11
2022-09-07T00:44:30.466Z,953.12
2022-09-07T00:45:30.449Z,953.14
2022-09-07T00:46:30.468Z,953.09
2022-09-07T00:47:30.435Z,953.1
2022-09-07T00:48:30.523Z,953.14
2022-09-07T00:49:30.421Z,953.12
2022-09-07T00:50:30.414Z,953.14
2022-09-07T00:51:30.413Z,953.13
2022-09-07T00:52:30.421Z,953.14
2022-09-07T00:53:30.391Z,953.13
2022-09-07T00:54:30.385Z,953.14
2022-09-07T00:55:30.377Z,953.18
2022-09-07T00:56:30.371Z,953.17
2022-09-07T00:57:30.362Z,953.16
2022-09-07T00:58:30.436Z,953.18
2022-09-07T00:59:30.349Z,953.22
2022-09-07T01:00:30.343Z,953.22
2022-09-07T01:01:30.466Z,953.26
2022-09-07T01:02:30.476Z,953.24
2022-09-07T01:03:30.361Z,953.29
2022-09-07T01:04:30.314Z,953.25
2022-09-07T01:05:30.306Z,953.26
2022-09-07T01:06:30.304Z,953.22
2022-09-07T01:07:30.290Z,953.23
2022-09-07T01:08:30.431Z,953.21
2022-09-07T01:09:30.275Z,953.23
2022-09-07T01:10:30.272Z,953.23
2022-09-07T01:11:30.262Z,953.23
2022-09-07T01:12:30.258Z,953.22
2022-09-07T01:13:30.248Z,953.26
2022-09-07T01:14:30.247Z,953.2
2022-09-07T01:15:30.236Z,953.25
2022-09-07T01:16:30.229Z,953.27
2022-09-07T01:17:30.226Z,953.23
2022-09-07T01:18:30.341Z,953.25
2022-09-07T01:19:30.212Z,953.25
2022-09-07T01:20:30.205Z,953.27
2022-09-07T01:21:30.200Z,953.25
2022-09-07T01:22:30.196Z,953.29
2022-09-07T01:23:30.253Z,953.31
2022-09-07T01:24:30.170Z,953.32
2022-09-07T01:25:30.173Z,953.26
2022-09-07T01:26:30.167Z,953.25
2022-09-07T01:27:30.151Z,953.23
2022-09-07T01:28:30.350Z,953.16
2022-09-07T01:29:30.145Z,953.16
2022-09-07T01:30:30.125Z,953.12
2022-09-07T01:31:30.174Z,953.14
2022-09-07T01:32:30.115Z,953.15
2022-09-07T01:33:30.107Z,953.16
2022-09-07T01:34:30.098Z,953.17
2022-09-07T01:35:30.092Z,953.2
2022-09-07T01:36:30.087Z,953.18
2022-09-07T01:37:30.078Z,953.18
2022-09-07T01:38:30.184Z,953.16
2022-09-07T01:39:30.121Z,953.15
2022-09-07T01:40:30.059Z,953.14
2022-09-07T01:41:30.052Z,953.12
2022-09-07T01:42:30.044Z,953.13
2022-09-07T01:43:30.036Z,953.11
2022-09-07T01:44:30.029Z,953.13
2022-09-07T01:45:30.024Z,953.11
2022-09-07T01:46:30.061Z,953.11
2022-09-07T01:47:30.011Z,953.11
2022-09-07T01:48:30.108Z,953.11
2022-09-07T01:49:29.994Z,953.09
2022-09-07T01:50:29.986Z,953.09
2022-09-07T01:51:29.983Z,953.09
2022-09-07T01:52:29.973Z,953.09
2022-09-07T01:53:29.971Z,953.05
2022-09-07T01:54:29.960Z,953.07
2022-09-07T01:55:29.955Z,953.07
2022-09-07T01:56:29.945Z,953.1
2022-09-07T01:57:29.939Z,953.07
2022-09-07T01:58:30.088Z,953.12
2022-09-07T01:59:29.924Z,953.13
2022-09-07T02:00:29.918Z,953.13
2022-09-07T02:01:29.938Z,953.12
2022-09-07T02:02:29.962Z,953.11
2022-09-07T02:03:29.898Z,953.12
2022-09-07T02:04:29.889Z,953.14
2022-09-07T02:05:29.884Z,953.15
2022-09-07T02:06:29.877Z,953.14
2022-09-07T02:07:29.867Z,953.12
2022-09-07T02:08:29.906Z,953.15
2022-09-07T02:09:29.854Z,953.15
2022-09-07T02:10:29.850Z,953.14
2022-09-07T02:11:29.839Z,953.13
2022-09-07T02:12:29.837Z,953.1
2022-09-07T02:13:29.828Z,953.1
2022-09-07T02:14:29.821Z,953.17
2022-09-07T02:15:29.829Z,953.18
2022-09-07T02:16:29.809Z,953.14
2022-09-07T02:17:29.799Z,953.18
2022-09-07T02:18:29.898Z,953.17
2022-09-07T02:19:29.784Z,953.13
2022-09-07T02:20:29.783Z,953.11
2022-09-07T02:21:29.774Z,953.09
2022-09-07T02:22:29.765Z,953.07
2022-09-07T02:23:29.757Z,953.11
2022-09-07T02:24:29.755Z,953.07
2022-09-07T02:25:29.745Z,953.06
2022-09-07T02:26:29.741Z,953.08
2022-09-07T02:27:29.731Z,953.08
2022-09-07T02:28:29.878Z,953.11
2022-09-07T02:29:31.041Z,953.06
2022-09-07T02:30:29.711Z,953.12
2022-09-07T02:31:29.774Z,953.09
2022-09-07T02:32:29.699Z,953.11
2022-09-07T02:33:29.689Z,953.1
2022-09-07T02:34:29.686Z,953.15
2022-09-07T02:35:29.680Z,953.16
2022-09-07T02:36:29.673Z,953.18
2022-09-07T02:37:29.662Z,953.14
2022-09-07T02:38:29.699Z,953.16
2022-09-07T02:39:29.707Z,953.18
2022-09-07T02:40:29.646Z,953.17
2022-09-07T02:41:29.635Z,953.16
2022-09-07T02:42:29.631Z,953.13
2022-09-07T02:43:29.623Z,953.1
2022-09-07T02:44:29.619Z,953.14
2022-09-07T02:45:29.609Z,953.15
2022-09-07T02:46:29.673Z,953.13
2022-09-07T02:47:29.596Z,953.1
2022-09-07T02:48:29.733Z,953.16
2022-09-07T02:49:29.583Z,953.1
2022-09-07T02:50:29.577Z,953.12
2022-09-07T02:51:29.571Z,953.08
2022-09-07T02:52:29.563Z,953.13
2022-09-07T02:53:29.558Z,953.12
2022-09-07T02:54:29.551Z,953.14
2022-09-07T02:55:29.542Z,953.08
2022-09-07T02:56:29.536Z,953.07
2022-09-07T02:57:29.532Z,953.07
2022-09-07T02:58:29.629Z,953.04
2022-09-07T02:59:29.518Z,953.06
2022-09-07T03:00:29.509Z,952.99
2022-09-07T03:01:29.564Z,953.02
2022-09-07T03:02:29.546Z,953.01
2022-09-07T03:03:29.490Z,952.96
2022-09-07T03:04:29.482Z,952.98
2022-09-07T03:05:29.477Z,953
2022-09-07T03:06:29.473Z,952.99
2022-09-07T03:07:29.465Z,952.99
2022-09-07T03:08:29.622Z,953
2022-09-07T03:09:29.450Z,952.94
2022-09-07T03:10:29.444Z,952.98
2022-09-07T03:11:29.439Z,952.94
2022-09-07T03:12:29.428Z,952.96
2022-09-07T03:13:29.423Z,952.88
2022-09-07T03:14:29.420Z,952.89
2022-09-07T03:15:29.443Z,952.91
2022-09-07T03:16:29.402Z,952.9
2022-09-07T03:17:29.397Z,952.9
2022-09-07T03:18:29.426Z,952.88
2022-09-07T03:19:29.387Z,952.91
2022-09-07T03:20:29.376Z,952.93
2022-09-07T03:21:29.372Z,952.91
2022-09-07T03:22:29.365Z,952.94
2022-09-07T03:23:29.358Z,952.95
2022-09-07T03:24:29.350Z,952.95
2022-09-07T03:25:29.346Z,952.98
2022-09-07T03:26:29.337Z,952.97
2022-09-07T03:27:29.332Z,952.93
2022-09-07T03:28:29.369Z,952.94
2022-09-07T03:29:29.317Z,952.94
2022-09-07T03:30:29.365Z,952.93
2022-09-07T03:31:29.305Z,952.98
2022-09-07T03:32:29.298Z,952.94
2022-09-07T03:49:46.099Z,952.95
2022-09-07T03:50:46.086Z,952.97
2022-09-07T03:51:46.075Z,952.99
2022-09-07T03:52:46.067Z,952.96
2022-09-07T03:53:46.057Z,952.94
2022-09-07T03:54:46.050Z,952.94
2022-09-07T03:55:46.038Z,952.99
2022-09-07T03:56:46.031Z,952.99
2022-09-07T03:57:46.020Z,952.99
2022-09-07T03:58:46.015Z,953.03
2022-09-07T03:59:46.003Z,953.05
2022-09-07T04:00:45.999Z,953.04
2022-09-07T04:01:46.014Z,953.01
2022-09-07T04:02:46.087Z,952.99
2022-09-07T04:03:45.972Z,953.03
2022-09-07T04:04:45.968Z,953
2022-09-07T04:05:45.957Z,952.93
2022-09-07T04:06:45.953Z,952.92
2022-09-07T04:07:45.942Z,952.97
2022-09-07T04:08:45.936Z,952.9
2022-09-07T04:09:45.926Z,952.96
2022-09-07T04:10:45.921Z,952.91
2022-09-07T04:11:45.915Z,952.96
2022-09-07T04:12:45.907Z,952.92
2022-09-07T04:13:45.902Z,952.93
2022-09-07T04:14:45.892Z,952.91
2022-09-07T04:15:45.885Z,952.87
2022-09-07T04:16:45.927Z,952.91
2022-09-07T04:17:45.873Z,952.89
2022-09-07T04:18:45.866Z,952.83
2022-09-07T04:19:45.857Z,952.8
2022-09-07T04:20:45.851Z,952.81
2022-09-07T04:21:45.842Z,952.79
2022-09-07T04:22:45.837Z,952.77
2022-09-07T04:23:45.833Z,952.78
2022-09-07T04:24:45.825Z,952.77
2022-09-07T04:25:45.815Z,952.79
2022-09-07T04:26:45.808Z,952.79
2022-09-07T04:27:45.802Z,952.81
2022-09-07T04:28:45.795Z,952.73
2022-09-07T04:29:45.788Z,952.78
2022-09-07T04:30:45.847Z,952.74
2022-09-07T04:31:45.775Z,952.77
2022-09-07T04:32:45.770Z,952.75
2022-09-07T04:33:45.758Z,952.71
2022-09-07T04:34:45.753Z,952.69
2022-09-07T04:35:45.746Z,952.69
2022-09-07T04:36:45.738Z,952.7
2022-09-07T04:37:45.733Z,952.7
2022-09-07T04:38:45.727Z,952.68
2022-09-07T04:39:45.786Z,952.7
2022-09-07T04:40:45.714Z,952.69
2022-09-07T04:41:45.706Z,952.75
2022-09-07T04:42:45.696Z,952.72
2022-09-07T04:43:45.692Z,952.76
2022-09-07T04:44:45.682Z,952.71
2022-09-07T04:45:45.771Z,952.74
2022-09-07T04:46:45.669Z,952.68
2022-09-07T04:47:45.663Z,952.69
2022-09-07T04:48:45.655Z,952.7
2022-09-07T04:49:45.650Z,952.7
2022-09-07T04:50:45.644Z,952.68
2022-09-07T04:51:45.636Z,952.7
2022-09-07T04:52:45.628Z,952.7
2022-09-07T04:53:45.623Z,952.69
2022-09-07T04:54:45.614Z,952.73
2022-09-07T04:55:45.610Z,952.75
2022-09-07T04:56:45.602Z,952.72
2022-09-07T04:57:45.596Z,952.76
2022-09-07T04:58:45.589Z,952.69
2022-09-07T04:59:45.584Z,952.7
2022-09-07T05:00:45.576Z,952.68
2022-09-07T05:01:45.629Z,952.68
2022-09-07T05:02:45.591Z,952.64
2022-09-07T05:03:45.558Z,952.66
2022-09-07T05:04:45.548Z,952.66
2022-09-07T05:05:45.545Z,952.62
2022-09-07T05:06:45.535Z,952.58
2022-09-07T05:07:45.535Z,952.54
2022-09-07T05:08:45.523Z,952.54
2022-09-07T05:09:45.519Z,952.56
2022-09-07T05:10:45.509Z,952.6
2022-09-07T05:11:45.503Z,952.57
2022-09-07T05:12:45.501Z,952.59
2022-09-07T05:13:45.492Z,952.59
2022-09-07T05:14:45.484Z,952.59
2022-09-07T05:15:45.480Z,952.61
2022-09-07T05:16:45.521Z,952.58
2022-09-07T05:17:45.465Z,952.6
2022-09-07T05:18:45.459Z,952.6
2022-09-07T05:19:45.453Z,952.61
2022-09-07T05:20:45.444Z,952.65
2022-09-07T05:21:45.440Z,952.63
2022-09-07T05:22:45.433Z,952.66
2022-09-07T05:23:45.427Z,952.67
2022-09-07T05:24:45.419Z,952.6
2022-09-07T05:25:45.415Z,952.63
2022-09-07T05:26:45.407Z,952.65
2022-09-07T05:27:45.405Z,952.63
2022-09-07T05:28:45.395Z,952.6
2022-09-07T05:32:14.617Z,952.65
2022-09-07T05:33:14.611Z,952.64
2022-09-07T05:35:26.727Z,952.68
2022-09-07T05:36:26.721Z,952.69
2022-09-07T05:37:26.714Z,952.67
2022-09-07T05:38:26.733Z,952.71
2022-09-07T05:39:26.818Z,952.7
2022-09-07T05:40:26.698Z,952.75
2022-09-07T05:41:26.691Z,952.74
2022-09-07T05:42:26.683Z,952.72
2022-09-07T05:43:26.679Z,952.73
2022-09-07T05:45:26.833Z,952.81
2022-09-07T05:46:26.662Z,952.73
2022-09-07T05:47:26.657Z,952.78
2022-09-07T05:48:26.706Z,952.79
2022-09-07T05:49:26.644Z,952.77
2022-09-07T05:50:26.637Z,952.81
2022-09-07T05:51:26.631Z,952.81
2022-09-07T05:52:26.624Z,952.79
2022-09-07T05:53:26.622Z,952.82
2022-09-07T05:54:26.613Z,952.83
2022-09-07T05:55:30.678Z,952.81
2022-09-07T05:56:26.601Z,952.84
2022-09-07T05:57:26.599Z,952.82
2022-09-07T05:58:26.591Z,952.83
2022-09-07T05:59:26.586Z,952.89
2022-09-07T06:00:26.579Z,952.88
2022-09-07T06:01:26.574Z,952.9
2022-09-07T06:02:26.656Z,952.9
2022-09-07T06:03:26.636Z,952.91
2022-09-07T06:04:26.557Z,952.89
2022-09-07T06:05:26.552Z,952.88
2022-09-07T06:06:26.545Z,952.9
2022-09-07T06:07:26.542Z,952.9
2022-09-07T06:08:26.536Z,952.83
2022-09-07T06:09:30.296Z,952.82
2022-09-07T06:11:43.147Z,952.89
2022-09-07T06:12:44.361Z,952.87
2022-09-07T06:13:43.139Z,952.81
2022-09-07T06:14:43.129Z,952.84
2022-09-07T06:15:43.126Z,952.84
2022-09-07T06:16:43.185Z,952.81
2022-09-07T06:17:43.126Z,952.8
2022-09-07T06:18:43.111Z,952.77
2022-09-07T06:19:43.107Z,952.77
2022-09-07T06:20:43.100Z,952.78
2022-09-07T06:21:43.099Z,952.77
2022-09-07T06:22:43.090Z,952.73
2022-09-07T06:23:43.085Z,952.73
2022-09-07T06:24:43.082Z,952.69
2022-09-07T06:25:43.076Z,952.73
2022-09-07T06:26:43.071Z,952.64
2022-09-07T06:27:43.065Z,952.66
2022-09-07T06:28:43.061Z,952.64
2022-09-07T06:29:43.058Z,952.59
2022-09-07T06:30:43.054Z,952.58
2022-09-07T06:32:52.351Z,952.6
2022-09-07T06:33:52.345Z,952.58
2022-09-07T06:34:52.342Z,952.63
2022-09-07T06:35:52.335Z,952.61
2022-09-07T06:36:52.330Z,952.62
2022-09-07T06:37:52.324Z,952.61
2022-09-07T06:38:52.323Z,952.62
2022-09-07T06:39:52.381Z,952.6
2022-09-07T06:42:05.815Z,952.63
2022-09-07T06:43:05.813Z,952.64
2022-09-07T06:44:05.806Z,952.64
2022-09-07T06:45:05.801Z,952.63
2022-09-07T06:47:15.013Z,952.61
2022-09-07T06:48:15.006Z,952.62
2022-09-07T06:49:15.057Z,952.61
2022-09-07T06:50:14.994Z,952.61
2022-09-07T06:51:14.991Z,952.63
2022-09-07T06:52:14.982Z,952.62
2022-09-07T06:55:56.046Z,952.62
2022-09-07T06:56:56.041Z,952.62
2022-09-07T06:57:56.038Z,952.64
2022-09-07T06:58:56.030Z,952.65
2022-09-07T06:59:56.030Z,952.65
2022-09-07T07:00:56.069Z,952.65
2022-09-07T07:01:56.017Z,952.68
2022-09-07T07:02:56.030Z,952.69
2022-09-07T07:03:56.010Z,952.67
2022-09-07T07:04:56.025Z,952.66
2022-09-07T07:05:55.999Z,952.62
2022-09-07T07:06:55.993Z,952.68
2022-09-07T07:07:55.992Z,952.7
2022-09-07T07:08:55.984Z,952.71
2022-09-07T07:09:55.981Z,952.65
2022-09-07T07:10:55.976Z,952.66
2022-09-07T07:11:55.973Z,952.7
2022-09-07T07:12:55.984Z,952.67
2022-09-07T07:13:55.966Z,952.71
2022-09-07T07:14:55.962Z,952.7
2022-09-07T07:15:55.981Z,952.75
2022-09-07T07:16:55.954Z,952.72
2022-09-07T07:17:59.031Z,952.77
2022-09-07T07:18:55.946Z,952.8
2022-09-07T07:19:55.942Z,952.78
2022-09-07T07:20:55.939Z,952.83
2022-09-07T07:22:29.405Z,952.81
2022-09-07T07:22:55.934Z,952.83
2022-09-07T07:23:55.928Z,952.82
2022-09-07T07:24:55.926Z,952.85
2022-09-07T07:25:55.921Z,952.82
2022-09-07T07:26:55.921Z,952.81
2022-09-07T07:27:55.982Z,952.83
2022-09-07T07:29:06.339Z,952.87
2022-09-07T07:30:06.289Z,952.86
2022-09-07T07:31:09.843Z,952.78
2022-09-07T07:32:06.283Z,952.78
2022-09-07T07:33:07.196Z,952.8
2022-09-07T07:34:06.375Z,952.77
2022-09-07T07:35:06.278Z,952.77
2022-09-07T07:36:06.278Z,952.82
2022-09-07T07:37:06.421Z,952.76
2022-09-07T07:40:17.845Z,952.84
2022-09-07T07:42:16.873Z,952.8
2022-09-07T07:43:16.872Z,952.84
2022-09-07T07:44:16.869Z,952.87
2022-09-07T07:46:16.916Z,952.88
2022-09-07T07:47:16.863Z,952.9
2022-09-07T07:48:16.859Z,952.87
2022-09-07T07:49:16.878Z,952.84
2022-09-07T07:50:32.588Z,952.85
2022-09-07T07:51:16.852Z,952.84
2022-09-07T07:53:46.540Z,952.9
2022-09-07T07:54:46.542Z,952.93
2022-09-07T07:55:46.556Z,952.91
2022-09-07T07:56:46.536Z,952.92
2022-09-07T07:57:46.531Z,952.95
2022-09-07T07:58:46.532Z,952.93
2022-09-07T07:59:46.531Z,952.88
2022-09-07T08:00:55.341Z,952.92
2022-09-07T08:01:46.590Z,952.95
2022-09-07T08:02:46.588Z,952.95
2022-09-07T08:03:46.517Z,952.92
2022-09-07T08:04:46.543Z,952.91
2022-09-07T08:05:46.514Z,952.85
2022-09-07T08:06:46.510Z,952.92
2022-09-07T08:07:46.506Z,952.89
2022-09-07T08:08:46.505Z,952.92
2022-09-07T08:09:46.505Z,952.83
2022-09-07T08:10:46.498Z,952.87
2022-09-07T08:11:46.498Z,952.83
2022-09-07T08:12:46.494Z,952.83
2022-09-07T08:13:46.495Z,952.85
2022-09-07T08:14:46.487Z,952.87
2022-09-07T08:15:46.860Z,952.85
2022-09-07T08:16:46.590Z,952.82
2022-09-07T08:17:46.482Z,952.89
2022-09-07T08:18:47.185Z,952.88
2022-09-07T08:19:46.476Z,952.87
2022-09-07T08:20:46.499Z,952.9
2022-09-07T08:21:46.471Z,952.9
2022-09-07T08:22:46.468Z,952.86
2022-09-07T08:23:46.469Z,952.93
2022-09-07T08:24:46.460Z,952.89
2022-09-07T08:25:46.459Z,952.88
2022-09-07T08:26:46.458Z,952.88
2022-09-07T08:27:46.455Z,952.87
2022-09-07T08:28:46.451Z,952.84
2022-09-07T08:29:46.449Z,952.89
2022-09-07T08:30:46.447Z,952.88
2022-09-07T08:31:46.541Z,952.9
2022-09-07T08:32:46.442Z,952.92
2022-09-07T08:33:46.443Z,952.89
2022-09-07T08:34:46.445Z,952.9
2022-09-07T08:35:46.436Z,952.9
2022-09-07T08:36:46.462Z,952.88
2022-09-07T08:37:46.435Z,952.89
2022-09-07T08:38:46.429Z,952.84
2022-09-07T08:39:46.517Z,952.88
2022-09-07T08:40:46.423Z,952.87
2022-09-07T08:41:46.425Z,952.82
2022-09-07T08:42:46.420Z,952.81
2022-09-07T08:43:49.068Z,952.84
2022-09-07T08:44:46.416Z,952.82
2022-09-07T08:45:46.414Z,952.79
2022-09-07T08:46:46.480Z,952.8
2022-09-07T08:47:46.415Z,952.8
2022-09-07T08:48:46.414Z,952.77
2022-09-07T08:49:46.415Z,952.74
2022-09-07T08:50:46.410Z,952.72
2022-09-07T08:51:46.418Z,952.72
2022-09-07T08:52:46.436Z,952.79
2022-09-07T08:53:46.410Z,952.79
2022-09-07T08:54:46.404Z,952.73
2022-09-07T08:55:46.413Z,952.76
2022-09-07T08:57:46.400Z,952.8
2022-09-07T08:58:50.109Z,952.75
2022-09-07T08:59:46.395Z,952.77
2022-09-07T09:00:46.394Z,952.83
2022-09-07T09:02:26.858Z,952.82
2022-09-07T09:06:17.434Z,952.87
2022-09-07T09:07:17.077Z,952.94
2022-09-07T09:08:17.113Z,952.91
2022-09-07T09:09:17.078Z,952.89
2022-09-07T09:10:17.083Z,952.89
2022-09-07T09:11:17.091Z,952.9
2022-09-07T09:12:17.071Z,952.88
2022-09-07T09:13:17.072Z,952.91
2022-09-07T09:14:17.069Z,952.92
2022-09-07T09:15:17.073Z,952.91
2022-09-07T09:16:17.118Z,952.9
2022-09-07T09:17:17.071Z,952.9
2022-09-07T09:18:17.069Z,952.94
2022-09-07T09:19:17.071Z,952.9
2022-09-07T09:20:17.063Z,952.93
2022-09-07T09:21:17.062Z,952.94
2022-09-07T09:22:17.061Z,952.94
2022-09-07T09:23:17.060Z,952.96
2022-09-07T09:24:17.083Z,952.91
2022-09-07T09:25:17.055Z,952.93
2022-09-07T09:26:17.055Z,952.88
2022-09-07T09:27:17.066Z,952.89
2022-09-07T09:28:17.057Z,952.9
2022-09-07T09:29:17.047Z,952.84
2022-09-07T09:30:17.049Z,952.85
2022-09-07T09:31:17.079Z,952.89
2022-09-07T09:32:17.045Z,952.9
2022-09-07T09:33:17.053Z,952.9
2022-09-07T09:34:17.043Z,952.85
2022-09-07T09:35:17.041Z,952.85
2022-09-07T09:36:17.040Z,952.87
2022-09-07T09:37:17.080Z,952.85
2022-09-07T09:38:17.041Z,952.85
2022-09-07T09:39:17.042Z,952.84
2022-09-07T09:40:17.091Z,952.84
2022-09-07T09:41:17.033Z,952.83
2022-09-07T09:42:17.031Z,952.84
2022-09-07T09:43:17.032Z,952.85
2022-09-07T09:44:17.030Z,952.87
2022-09-07T09:45:17.029Z,952.83
2022-09-07T09:46:17.026Z,952.86
2022-09-07T09:47:32.920Z,952.89
2022-09-07T09:48:17.026Z,952.91
2022-09-07T09:49:17.020Z,952.94
2022-09-07T09:52:28.807Z,952.89
2022-09-07T09:52:55.569Z,952.91
2022-09-07T09:53:55.571Z,952.85
2022-09-07T09:54:55.927Z,952.85
2022-09-07T09:55:55.594Z,952.83
2022-09-07T09:56:55.567Z,952.86
2022-09-07T10:00:14.915Z,952.87
2022-09-07T10:01:23.280Z,952.85
2022-09-07T10:04:00.971Z,952.9
2022-09-07T10:04:59.601Z,952.91
2022-09-07T10:05:59.594Z,952.92
2022-09-07T10:06:59.594Z,952.87
2022-09-07T10:07:59.603Z,952.89
2022-09-07T10:08:59.590Z,952.94
2022-09-07T10:09:59.592Z,952.91
2022-09-07T10:10:59.616Z,952.91
2022-09-07T10:12:07.729Z,952.9
2022-09-07T10:12:59.598Z,952.89
2022-09-07T10:13:59.593Z,952.94
2022-09-07T10:14:59.589Z,952.88
2022-09-07T10:15:59.650Z,952.91
2022-09-07T10:16:59.588Z,952.92
2022-09-07T10:17:59.589Z,952.91
2022-09-07T10:18:59.586Z,952.89
2022-09-07T10:19:59.590Z,952.91
2022-09-07T10:20:59.588Z,952.89
2022-09-07T10:21:59.588Z,952.94
2022-09-07T10:22:59.585Z,952.92
2022-09-07T10:23:59.587Z,952.92
2022-09-07T10:24:59.588Z,953.01
2022-09-07T10:25:59.586Z,953.01
2022-09-07T10:26:59.607Z,953.03
2022-09-07T10:27:59.585Z,952.97
2022-09-07T10:29:07.075Z,953.03
2022-09-07T10:29:59.583Z,953.01
2022-09-07T10:30:59.603Z,953.05
2022-09-07T10:31:59.583Z,953.09
2022-09-07T10:32:59.585Z,953.05
2022-09-07T10:34:59.578Z,952.99
2022-09-07T10:35:59.583Z,953.07
2022-09-07T10:36:59.579Z,953.02
2022-09-07T10:37:59.578Z,953
2022-09-07T10:38:59.577Z,953
2022-09-07T10:40:00.506Z,953.02
2022-09-07T10:40:59.576Z,953.02
2022-09-07T10:41:59.577Z,952.98
2022-09-07T10:43:59.578Z,952.93
2022-09-07T10:44:59.575Z,952.96
2022-09-07T10:45:59.615Z,952.89
2022-09-07T10:46:59.693Z,952.88
2022-09-07T10:47:59.573Z,952.88
2022-09-07T10:48:59.572Z,952.87
2022-09-07T10:51:03.088Z,952.88
2022-09-07T10:51:59.571Z,952.96
2022-09-07T10:52:59.570Z,952.98
2022-09-07T10:54:59.572Z,952.92
2022-09-07T10:55:59.569Z,952.89
2022-09-07T10:56:59.569Z,952.92
2022-09-07T10:57:59.568Z,952.91
2022-09-07T10:59:03.333Z,952.89
2022-09-07T11:00:14.934Z,952.8
2022-09-07T11:00:59.569Z,952.88
2022-09-07T11:01:59.565Z,952.86
2022-09-07T11:03:59.630Z,952.88
2022-09-07T11:04:59.567Z,952.8
2022-09-07T11:05:59.564Z,952.85
2022-09-07T11:06:59.565Z,952.84
2022-09-07T11:07:59.564Z,952.89
2022-09-07T11:09:16.125Z,952.85
2022-09-07T11:09:59.577Z,952.86
2022-09-07T11:10:59.565Z,952.83
2022-09-07T11:12:01.243Z,952.81
2022-09-07T11:12:59.568Z,952.86
2022-09-07T11:14:12.330Z,952.81
2022-09-07T11:14:59.588Z,952.81
2022-09-07T11:15:59.606Z,952.74
2022-09-07T11:16:59.631Z,952.78
2022-09-07T11:17:59.564Z,952.76
2022-09-07T11:19:59.577Z,952.74
2022-09-07T11:20:59.567Z,952.77
2022-09-07T11:21:59.571Z,952.76
2022-09-07T11:22:59.569Z,952.74
2022-09-07T11:23:59.568Z,952.67
2022-09-07T11:25:59.568Z,952.7
2022-09-07T11:26:59.572Z,952.75
2022-09-07T11:27:59.571Z,952.7
2022-09-07T11:29:59.570Z,952.71
2022-09-07T11:31:00.475Z,952.64
2022-09-07T11:31:59.571Z,952.64
2022-09-07T11:32:59.574Z,952.66
2022-09-07T11:34:59.578Z,952.64
2022-09-07T11:35:59.573Z,952.65
2022-09-07T11:36:59.582Z,952.61
2022-09-07T11:37:59.624Z,952.62
2022-09-07T11:38:59.588Z,952.6
2022-09-07T11:39:59.599Z,952.62
2022-09-07T11:40:59.577Z,952.56
2022-09-07T11:41:59.792Z,952.59
2022-09-07T11:42:59.578Z,952.56
2022-09-07T11:43:59.580Z,952.6
2022-09-07T11:44:59.580Z,952.64
2022-09-07T11:45:59.631Z,952.56
2022-09-07T11:46:59.604Z,952.59
2022-09-07T11:47:59.595Z,952.58
2022-09-07T11:48:59.588Z,952.63
2022-09-07T11:49:59.710Z,952.59
2022-09-07T11:50:59.584Z,952.59
2022-09-07T11:52:04.926Z,952.57
2022-09-07T11:52:59.590Z,952.6
2022-09-07T11:53:59.588Z,952.57
2022-09-07T11:54:59.588Z,952.59
2022-09-07T11:55:59.591Z,952.54
2022-09-07T11:56:59.594Z,952.55
2022-09-07T11:57:59.595Z,952.55
2022-09-07T11:58:59.594Z,952.57
2022-09-07T11:59:59.595Z,952.53
2022-09-07T12:00:59.596Z,952.52
2022-09-07T12:01:59.599Z,952.51
2022-09-07T12:03:00.677Z,952.53
2022-09-07T12:03:59.684Z,952.47
2022-09-07T12:04:59.757Z,952.54
2022-09-07T12:05:59.607Z,952.54
2022-09-07T12:06:59.602Z,952.49
2022-09-07T12:07:59.606Z,952.48
2022-09-07T12:08:59.604Z,952.46
2022-09-07T12:09:59.627Z,952.43
2022-09-07T12:10:59.613Z,952.47
2022-09-07T12:11:59.612Z,952.46
2022-09-07T12:12:59.610Z,952.48
2022-09-07T12:13:59.614Z,952.45
2022-09-07T12:14:59.616Z,952.49
2022-09-07T12:15:59.660Z,952.49
2022-09-07T12:16:59.617Z,952.46
2022-09-07T12:17:59.618Z,952.45
2022-09-07T12:18:59.643Z,952.41
2022-09-07T12:19:59.624Z,952.44
2022-09-07T12:20:59.622Z,952.48
2022-09-07T12:21:59.625Z,952.45
2022-09-07T12:23:03.830Z,952.4
2022-09-07T12:23:59.625Z,952.37
2022-09-07T12:24:59.627Z,952.35
2022-09-07T12:25:59.629Z,952.42
2022-09-07T12:26:59.626Z,952.36
2022-09-07T12:27:59.630Z,952.36
2022-09-07T12:28:59.631Z,952.36
2022-09-07T12:29:59.642Z,952.31
2022-09-07T12:30:59.687Z,952.34
2022-09-07T12:32:08.533Z,952.31
2022-09-07T12:33:05.170Z,952.33
2022-09-07T12:34:05.169Z,952.33
2022-09-07T12:35:05.151Z,952.28
2022-09-07T12:36:05.148Z,952.25
2022-09-07T12:37:06.796Z,952.29
2022-09-07T12:38:05.150Z,952.32
2022-09-07T12:39:05.152Z,952.33
2022-09-07T12:40:05.199Z,952.3
2022-09-07T12:41:05.154Z,952.26
2022-09-07T12:43:09.813Z,952.23
2022-09-07T12:44:05.157Z,952.25
2022-09-07T12:45:05.158Z,952.25
2022-09-07T12:46:05.206Z,952.2
2022-09-07T12:47:05.161Z,952.15
2022-09-07T12:48:05.162Z,952.14
2022-09-07T12:49:05.162Z,952.09
2022-09-07T12:50:05.188Z,952.12
2022-09-07T12:51:05.165Z,952.11
2022-09-07T12:52:14.164Z,952.09
2022-09-07T12:53:05.167Z,952.13
2022-09-07T12:54:05.170Z,952.1
2022-09-07T12:55:26.395Z,952.05
2022-09-07T12:56:18.695Z,952.05
2022-09-07T12:57:33.912Z,952.05
2022-09-07T12:58:18.651Z,952.06
2022-09-07T12:59:20.179Z,952.14
2022-09-07T13:00:18.652Z,952.11
2022-09-07T13:01:18.727Z,952.11
2022-09-07T13:02:18.774Z,952.16
2022-09-07T13:04:18.656Z,952.14
2022-09-07T13:05:18.683Z,952.15
2022-09-07T13:06:18.820Z,952.16
2022-09-07T13:07:18.663Z,952.13
2022-09-07T13:08:18.687Z,952.1
2022-09-07T13:09:18.662Z,952.15
2022-09-07T13:10:18.663Z,952.14
2022-09-07T13:11:18.662Z,952.13
2022-09-07T13:13:18.696Z,952.16
2022-09-07T13:14:19.113Z,952.19
2022-09-07T13:15:23.967Z,952.22
2022-09-07T13:16:18.687Z,952.19
2022-09-07T13:17:18.764Z,952.14
2022-09-07T13:18:18.672Z,952.17
2022-09-07T13:19:18.672Z,952.16
2022-09-07T13:20:18.672Z,952.13
2022-09-07T13:21:18.816Z,952.15
2022-09-07T13:22:18.672Z,952.2
2022-09-07T13:23:18.677Z,952.13
2022-09-07T13:25:18.676Z,952.19
2022-09-07T13:26:18.678Z,952.17
2022-09-07T13:27:18.680Z,952.16
2022-09-07T13:28:18.680Z,952.13
2022-09-07T13:29:18.679Z,952.14